sensor_id;sensor_type;location;lat;lon;timestamp;pressure;altitude;pressure_sealevel;temperature;humidity
39105;BME280;46464;51.154;13.812;2023-02-11T00:01:32;100855.47;;;0.71;90.70
39105;BME280;46464;51.154;13.812;2023-02-11T00:04:00;100841.31;;;0.68;91.25
39105;BME280;46464;51.154;13.812;2023-02-11T00:06:27;100838.78;;;0.75;91.14
39105;BME280;46464;51.154;13.812;2023-02-11T00:08:54;100838.78;;;0.77;91.00
39105;BME280;46464;51.154;13.812;2023-02-11T00:11:21;100841.53;;;0.83;90.96
39105;BME280;46464;51.154;13.812;2023-02-11T00:13:48;100834.44;;;0.80;91.26
39105;BME280;46464;51.154;13.812;2023-02-11T00:16:15;100845.19;;;0.90;91.02
39105;BME280;46464;51.154;13.812;2023-02-11T00:18:42;100840.78;;;0.90;91.33
39105;BME280;46464;51.154;13.812;2023-02-11T00:21:13;100840.78;;;0.90;91.16
39105;BME280;46464;51.154;13.812;2023-02-11T00:23:39;100824.81;;;0.84;91.56
39105;BME280;46464;51.154;13.812;2023-02-11T00:28:38;100795.75;;;0.87;91.69
39105;BME280;46464;51.154;13.812;2023-02-11T00:31:04;100800.25;;;0.93;91.48
39105;BME280;46464;51.154;13.812;2023-02-11T00:33:31;100807.34;;;0.95;91.73
39105;BME280;46464;51.154;13.812;2023-02-11T00:35:57;100809.19;;;1.01;91.43
39105;BME280;46464;51.154;13.812;2023-02-11T00:38:23;100799.47;;;0.99;91.78
39105;BME280;46464;51.154;13.812;2023-02-11T00:40:50;100797.75;;;1.02;91.98
39105;BME280;46464;51.154;13.812;2023-02-11T00:43:16;100801.25;;;1.00;92.01
39105;BME280;46464;51.154;13.812;2023-02-11T00:45:42;100787.16;;;1.01;91.99
39105;BME280;46464;51.154;13.812;2023-02-11T00:48:09;100778.22;;;0.94;92.59
39105;BME280;46464;51.154;13.812;2023-02-11T00:50:35;100771.31;;;1.04;92.59
39105;BME280;46464;51.154;13.812;2023-02-11T00:53:02;100758.16;;;1.11;92.05
39105;BME280;46464;51.154;13.812;2023-02-11T00:55:28;100764.44;;;1.17;92.10
39105;BME280;46464;51.154;13.812;2023-02-11T00:57:55;100760.03;;;1.17;92.25
39105;BME280;46464;51.154;13.812;2023-02-11T01:00:21;100745.16;;;1.30;91.48
39105;BME280;46464;51.154;13.812;2023-02-11T01:02:47;100728.41;;;1.28;91.39
39105;BME280;46464;51.154;13.812;2023-02-11T01:05:14;100732.84;;;1.31;91.49
39105;BME280;46464;51.154;13.812;2023-02-11T01:07:41;100741.72;;;1.34;91.12
39105;BME280;46464;51.154;13.812;2023-02-11T01:10:07;100738.22;;;1.37;91.03
39105;BME280;46464;51.154;13.812;2023-02-11T01:12:34;100740.81;;;1.35;91.21
39105;BME280;46464;51.154;13.812;2023-02-11T01:15:02;100744.38;;;1.34;91.35
39105;BME280;46464;51.154;13.812;2023-02-11T01:17:29;100756.72;;;1.35;91.16
39105;BME280;46464;51.154;13.812;2023-02-11T01:19:55;100752.34;;;1.39;91.06
39105;BME280;46464;51.154;13.812;2023-02-11T01:22:21;100766.50;;;1.41;91.22
39105;BME280;46464;51.154;13.812;2023-02-11T01:24:48;100767.38;;;1.41;91.37
39105;BME280;46464;51.154;13.812;2023-02-11T01:27:14;100770.88;;;1.39;91.46
39105;BME280;46464;51.154;13.812;2023-02-11T01:29:41;100772.66;;;1.38;91.81
39105;BME280;46464;51.154;13.812;2023-02-11T01:32:07;100772.72;;;1.43;91.50
39105;BME280;46464;51.154;13.812;2023-02-11T01:34:33;100767.50;;;1.51;91.18
39105;BME280;46464;51.154;13.812;2023-02-11T01:37:00;100755.09;;;1.47;91.52
39105;BME280;46464;51.154;13.812;2023-02-11T01:39:26;100748.97;;;1.52;91.23
39105;BME280;46464;51.154;13.812;2023-02-11T01:41:53;100741.03;;;1.54;91.25
39105;BME280;46464;51.154;13.812;2023-02-11T01:44:24;100748.19;;;1.59;91.23
39105;BME280;46464;51.154;13.812;2023-02-11T01:46:50;100740.25;;;1.61;91.26
39105;BME280;46464;51.154;13.812;2023-02-11T01:49:18;100722.63;;;1.65;91.11
39105;BME280;46464;51.154;13.812;2023-02-11T01:52:07;100726.22;;;1.70;91.11
39105;BME280;46464;51.154;13.812;2023-02-11T01:54:37;100725.34;;;1.72;90.84
39105;BME280;46464;51.154;13.812;2023-02-11T01:57:25;100712.09;;;1.72;91.13
39105;BME280;46464;51.154;13.812;2023-02-11T02:00:03;100705.06;;;1.73;90.97
39105;BME280;46464;51.154;13.812;2023-02-11T02:02:40;100705.13;;;1.79;90.93
39105;BME280;46464;51.154;13.812;2023-02-11T02:05:09;100706.00;;;1.80;90.81
39105;BME280;46464;51.154;13.812;2023-02-11T02:08:22;100710.50;;;1.85;90.78
39105;BME280;46464;51.154;13.812;2023-02-11T02:10:29;100713.16;;;1.88;90.63
39105;BME280;46464;51.154;13.812;2023-02-11T02:12:56;100704.38;;;1.94;90.45
39105;BME280;46464;51.154;13.812;2023-02-11T02:15:32;100707.91;;;1.93;90.62
39105;BME280;46464;51.154;13.812;2023-02-11T02:18:06;100715.06;;;2.03;90.18
39105;BME280;46464;51.154;13.812;2023-02-11T02:23:27;100717.81;;;2.16;89.81
39105;BME280;46464;51.154;13.812;2023-02-11T02:26:02;100717.88;;;2.22;89.38
39105;BME280;46464;51.154;13.812;2023-02-11T02:34:41;100686.97;;;2.25;89.19
39105;BME280;46464;51.154;13.812;2023-02-11T02:37:03;100688.78;;;2.30;89.13
39105;BME280;46464;51.154;13.812;2023-02-11T02:39:32;100691.50;;;2.37;88.93
39105;BME280;46464;51.154;13.812;2023-02-11T02:42:01;100688.84;;;2.37;88.91
39105;BME280;46464;51.154;13.812;2023-02-11T02:44:27;100685.28;;;2.32;89.27
39105;BME280;46464;51.154;13.812;2023-02-11T02:46:54;100688.84;;;2.36;88.87
39105;BME280;46464;51.154;13.812;2023-02-11T02:49:21;100680.94;;;2.44;88.54
39105;BME280;46464;51.154;13.812;2023-02-11T03:09:50;100688.16;;;2.66;87.04
39105;BME280;46464;51.154;13.812;2023-02-11T03:12:19;100681.97;;;2.69;86.98
39105;BME280;46464;51.154;13.812;2023-02-11T03:14:47;100666.97;;;2.69;86.55
39105;BME280;46464;51.154;13.812;2023-02-11T03:17:15;100667.84;;;2.70;86.75
39105;BME280;46464;51.154;13.812;2023-02-11T03:19:42;100663.44;;;2.75;86.44
39105;BME280;46464;51.154;13.812;2023-02-11T03:22:10;100659.91;;;2.74;86.21
39105;BME280;46464;51.154;13.812;2023-02-11T03:24:38;100658.13;;;2.77;86.17
39105;BME280;46464;51.154;13.812;2023-02-11T03:27:09;100650.19;;;2.81;85.65
39105;BME280;46464;51.154;13.812;2023-02-11T03:32:06;100646.66;;;2.82;85.53
39105;BME280;46464;51.154;13.812;2023-02-11T03:34:45;100641.38;;;2.82;85.86
39105;BME280;46464;51.154;13.812;2023-02-11T03:37:19;100651.97;;;2.81;85.89
39105;BME280;46464;51.154;13.812;2023-02-11T03:39:51;100644.88;;;2.81;85.93
39105;BME280;46464;51.154;13.812;2023-02-11T03:42:19;100637.84;;;2.82;86.17
39105;BME280;46464;51.154;13.812;2023-02-11T03:44:49;100627.19;;;2.80;86.45
39105;BME280;46464;51.154;13.812;2023-02-11T03:47:17;100628.09;;;2.81;86.91
39105;BME280;46464;51.154;13.812;2023-02-11T03:49:46;100621.84;;;2.72;87.47
39105;BME280;46464;51.154;13.812;2023-02-11T03:52:14;100624.50;;;2.74;87.24
39105;BME280;46464;51.154;13.812;2023-02-11T03:54:43;100610.34;;;2.69;87.61
39105;BME280;46464;51.154;13.812;2023-02-11T03:57:11;100610.34;;;2.70;87.52
39105;BME280;46464;51.154;13.812;2023-02-11T04:02:16;100613.88;;;2.74;87.29
39105;BME280;46464;51.154;13.812;2023-02-11T04:04:42;100611.22;;;2.74;87.50
39105;BME280;46464;51.154;13.812;2023-02-11T04:07:10;100615.66;;;2.73;87.48
39105;BME280;46464;51.154;13.812;2023-02-11T04:09:37;100615.66;;;2.73;87.37
39105;BME280;46464;51.154;13.812;2023-02-11T04:12:03;100609.47;;;2.78;87.59
39105;BME280;46464;51.154;13.812;2023-02-11T04:14:30;100613.88;;;2.72;87.90
39105;BME280;46464;51.154;13.812;2023-02-11T04:16:56;100620.09;;;2.76;87.90
39105;BME280;46464;51.154;13.812;2023-02-11T04:19:22;100613.00;;;2.75;87.82
39105;BME280;46464;51.154;13.812;2023-02-11T04:21:49;100605.06;;;2.77;87.67
39105;BME280;46464;51.154;13.812;2023-02-11T04:24:15;100605.97;;;2.77;87.78
39105;BME280;46464;51.154;13.812;2023-02-11T04:26:42;100613.91;;;2.79;87.84
39105;BME280;46464;51.154;13.812;2023-02-11T04:29:08;100621.00;;;2.78;87.87
39105;BME280;46464;51.154;13.812;2023-02-11T04:31:34;100611.25;;;2.77;87.78
39105;BME280;46464;51.154;13.812;2023-02-11T04:34:01;100608.63;;;2.79;87.72
39105;BME280;46464;51.154;13.812;2023-02-11T04:36:27;100611.25;;;2.79;87.98
39105;BME280;46464;51.154;13.812;2023-02-11T04:38:54;100618.34;;;2.81;87.82
39105;BME280;46464;51.154;13.812;2023-02-11T04:41:20;100617.44;;;2.76;88.06
39105;BME280;46464;51.154;13.812;2023-02-11T04:43:46;100626.34;;;2.86;88.18
39105;BME280;46464;51.154;13.812;2023-02-11T04:46:13;100624.56;;;2.83;88.51
39105;BME280;46464;51.154;13.812;2023-02-11T04:48:39;100636.09;;;2.85;88.50
39105;BME280;46464;51.154;13.812;2023-02-11T04:51:06;100639.63;;;2.87;88.64
39105;BME280;46464;51.154;13.812;2023-02-11T04:53:32;100632.56;;;2.91;88.79
39105;BME280;46464;51.154;13.812;2023-02-11T04:55:58;100638.75;;;2.92;89.09
39105;BME280;46464;51.154;13.812;2023-02-11T04:58:25;100630.81;;;2.92;89.34
39105;BME280;46464;51.154;13.812;2023-02-11T05:00:51;100628.16;;;2.92;89.82
39105;BME280;46464;51.154;13.812;2023-02-11T05:03:18;100625.50;;;2.95;90.43
39105;BME280;46464;51.154;13.812;2023-02-11T05:05:45;100622.84;;;2.93;90.59
39105;BME280;46464;51.154;13.812;2023-02-11T05:08:11;100621.94;;;2.91;91.26
39105;BME280;46464;51.154;13.812;2023-02-11T05:10:38;100631.72;;;2.97;91.35
39105;BME280;46464;51.154;13.812;2023-02-11T05:13:04;100634.34;;;2.94;91.88
39105;BME280;46464;51.154;13.812;2023-02-11T05:15:31;100632.53;;;2.93;92.47
39105;BME280;46464;51.154;13.812;2023-02-11T05:17:57;100621.06;;;2.92;93.22
39105;BME280;46464;51.154;13.812;2023-02-11T05:20:23;100629.88;;;2.86;94.06
39105;BME280;46464;51.154;13.812;2023-02-11T05:22:50;100614.78;;;2.78;95.44
39105;BME280;46464;51.154;13.812;2023-02-11T05:25:16;100615.66;;;2.77;96.25
39105;BME280;46464;51.154;13.812;2023-02-11T05:27:43;100612.13;;;2.78;96.79
39105;BME280;46464;51.154;13.812;2023-02-11T05:30:10;100605.94;;;2.72;98.28
39105;BME280;46464;51.154;13.812;2023-02-11T05:32:36;100600.63;;;2.72;98.77
39105;BME280;46464;51.154;13.812;2023-02-11T05:35:03;100605.03;;;2.67;99.13
39105;BME280;46464;51.154;13.812;2023-02-11T05:37:29;100602.38;;;2.67;98.73
39105;BME280;46464;51.154;13.812;2023-02-11T05:39:56;100603.28;;;2.69;98.69
39105;BME280;46464;51.154;13.812;2023-02-11T05:42:22;100593.53;;;2.71;98.58
39105;BME280;46464;51.154;13.812;2023-02-11T05:44:49;100593.53;;;2.71;98.47
39105;BME280;46464;51.154;13.812;2023-02-11T05:47:15;100603.28;;;2.71;98.27
39105;BME280;46464;51.154;13.812;2023-02-11T05:49:42;100604.16;;;2.70;98.28
39105;BME280;46464;51.154;13.812;2023-02-11T05:52:08;100599.75;;;2.72;98.55
39105;BME280;46464;51.154;13.812;2023-02-11T05:54:35;100601.53;;;2.74;98.27
39105;BME280;46464;51.154;13.812;2023-02-11T05:57:01;100598.88;;;2.74;98.24
39105;BME280;46464;51.154;13.812;2023-02-11T05:59:27;100591.78;;;2.73;98.62
39105;BME280;46464;51.154;13.812;2023-02-11T06:01:54;100590.00;;;2.72;99.13
39105;BME280;46464;51.154;13.812;2023-02-11T06:04:20;100585.56;;;2.70;99.89
39105;BME280;46464;51.154;13.812;2023-02-11T06:06:47;100577.63;;;2.70;100.00
39105;BME280;46464;51.154;13.812;2023-02-11T06:09:13;100569.63;;;2.65;100.00
39105;BME280;46464;51.154;13.812;2023-02-11T06:11:39;100579.38;;;2.68;100.00
39105;BME280;46464;51.154;13.812;2023-02-11T06:14:06;100572.28;;;2.62;100.00
39105;BME280;46464;51.154;13.812;2023-02-11T06:16:32;100568.69;;;2.55;100.00
39105;BME280;46464;51.154;13.812;2023-02-11T06:18:59;100565.16;;;2.56;100.00
39105;BME280;46464;51.154;13.812;2023-02-11T06:21:25;100560.75;;;2.52;100.00
39105;BME280;46464;51.154;13.812;2023-02-11T06:24:08;100566.94;;;2.57;100.00
39105;BME280;46464;51.154;13.812;2023-02-11T06:26:34;100559.00;;;2.54;100.00
39105;BME280;46464;51.154;13.812;2023-02-11T06:29:01;100560.75;;;2.54;100.00
39105;BME280;46464;51.154;13.812;2023-02-11T06:31:27;100558.97;;;2.48;100.00
39105;BME280;46464;51.154;13.812;2023-02-11T06:33:53;100558.97;;;2.51;100.00
39105;BME280;46464;51.154;13.812;2023-02-11T06:36:20;100572.25;;;2.54;100.00
39105;BME280;46464;51.154;13.812;2023-02-11T06:38:47;100570.47;;;2.55;100.00
39105;BME280;46464;51.154;13.812;2023-02-11T06:41:14;100567.81;;;2.56;100.00
39105;BME280;46464;51.154;13.812;2023-02-11T06:43:41;100570.50;;;2.60;100.00
39105;BME280;46464;51.154;13.812;2023-02-11T06:46:08;100571.38;;;2.60;100.00
39105;BME280;46464;51.154;13.812;2023-02-11T06:48:35;100565.19;;;2.60;100.00
39105;BME280;46464;51.154;13.812;2023-02-11T06:51:02;100565.19;;;2.63;100.00
39105;BME280;46464;51.154;13.812;2023-02-11T06:53:30;100562.56;;;2.67;100.00
39105;BME280;46464;51.154;13.812;2023-02-11T06:56:01;100565.22;;;2.70;100.00
39105;BME280;46464;51.154;13.812;2023-02-11T06:58:27;100559.91;;;2.70;100.00
39105;BME280;46464;51.154;13.812;2023-02-11T07:00:53;100567.03;;;2.76;100.00
39105;BME280;46464;51.154;13.812;2023-02-11T07:03:20;100553.75;;;2.74;100.00
39105;BME280;46464;51.154;13.812;2023-02-11T07:05:46;100555.53;;;2.80;100.00
39105;BME280;46464;51.154;13.812;2023-02-11T07:08:13;100559.09;;;2.84;100.00
39105;BME280;46464;51.154;13.812;2023-02-11T07:10:39;100560.88;;;2.85;99.94
39105;BME280;46464;51.154;13.812;2023-02-11T07:13:06;100563.56;;;2.88;99.84
39105;BME280;46464;51.154;13.812;2023-02-11T07:15:32;100560.00;;;2.94;99.53
39105;BME280;46464;51.154;13.812;2023-02-11T07:17:58;100572.44;;;2.98;99.26
39105;BME280;46464;51.154;13.812;2023-02-11T07:20:25;100568.00;;;2.97;99.04
39105;BME280;46464;51.154;13.812;2023-02-11T07:22:51;100581.25;;;2.98;99.28
39105;BME280;46464;51.154;13.812;2023-02-11T07:25:18;100586.56;;;3.00;98.96
39105;BME280;46464;51.154;13.812;2023-02-11T07:27:44;100583.91;;;3.01;98.42
39105;BME280;46464;51.154;13.812;2023-02-11T07:30:11;100583.91;;;3.00;98.77
39105;BME280;46464;51.154;13.812;2023-02-11T07:32:37;100588.38;;;3.05;98.64
39105;BME280;46464;51.154;13.812;2023-02-11T07:35:04;100579.50;;;3.00;99.47
39105;BME280;46464;51.154;13.812;2023-02-11T07:37:32;100579.53;;;3.06;100.00
39105;BME280;46464;51.154;13.812;2023-02-11T07:39:58;100587.47;;;3.02;100.00
39105;BME280;46464;51.154;13.812;2023-02-11T07:42:24;100582.13;;;2.97;100.00
39105;BME280;46464;51.154;13.812;2023-02-11T07:44:51;100595.41;;;2.94;100.00
39105;BME280;46464;51.154;13.812;2023-02-11T07:47:17;100589.19;;;2.89;100.00
39105;BME280;46464;51.154;13.812;2023-02-11T07:49:44;100585.66;;;2.87;100.00
39105;BME280;46464;51.154;13.812;2023-02-11T07:52:10;100596.28;;;2.90;100.00
39105;BME280;46464;51.154;13.812;2023-02-11T07:54:36;100594.50;;;2.87;100.00
39105;BME280;46464;51.154;13.812;2023-02-11T07:57:03;100585.66;;;2.87;100.00
39105;BME280;46464;51.154;13.812;2023-02-11T07:59:29;100596.25;;;2.81;100.00
39105;BME280;46464;51.154;13.812;2023-02-11T08:01:56;100592.69;;;2.77;100.00
39105;BME280;46464;51.154;13.812;2023-02-11T08:04:22;100598.00;;;2.77;100.00
39105;BME280;46464;51.154;13.812;2023-02-11T08:06:48;100582.06;;;2.79;100.00
39105;BME280;46464;51.154;13.812;2023-02-11T08:09:18;100590.00;;;2.74;100.00
39105;BME280;46464;51.154;13.812;2023-02-11T08:11:44;100592.69;;;2.77;100.00
39105;BME280;46464;51.154;13.812;2023-02-11T08:14:10;100590.88;;;2.71;100.00
39105;BME280;46464;51.154;13.812;2023-02-11T08:16:37;100590.00;;;2.72;100.00
39105;BME280;46464;51.154;13.812;2023-02-11T08:19:09;100589.13;;;2.73;100.00
39105;BME280;46464;51.154;13.812;2023-02-11T08:21:36;100590.03;;;2.76;100.00
39105;BME280;46464;51.154;13.812;2023-02-11T08:24:03;100582.94;;;2.76;100.00
39105;BME280;46464;51.154;13.812;2023-02-11T08:26:30;100574.09;;;2.74;100.00
39105;BME280;46464;51.154;13.812;2023-02-11T08:29:05;100574.13;;;2.80;100.00
39105;BME280;46464;51.154;13.812;2023-02-11T08:31:33;100575.03;;;2.85;100.00
39105;BME280;46464;51.154;13.812;2023-02-11T08:34:00;100565.28;;;2.87;100.00
39105;BME280;46464;51.154;13.812;2023-02-11T08:36:28;100575.09;;;2.98;100.00
39105;BME280;46464;51.154;13.812;2023-02-11T08:38:55;100576.84;;;3.00;100.00
39105;BME280;46464;51.154;13.812;2023-02-11T08:41:42;100567.13;;;3.05;100.00
39105;BME280;46464;51.154;13.812;2023-02-11T08:44:08;100560.06;;;3.12;100.00
39105;BME280;46464;51.154;13.812;2023-02-11T08:46:35;100560.06;;;3.18;100.00
39105;BME280;46464;51.154;13.812;2023-02-11T08:49:01;100566.28;;;3.22;98.76
39105;BME280;46464;51.154;13.812;2023-02-11T08:51:28;100572.47;;;3.27;98.59
39105;BME280;46464;51.154;13.812;2023-02-11T08:53:58;100577.78;;;3.35;97.66
39105;BME280;46464;51.154;13.812;2023-02-11T08:56:25;100578.72;;;3.40;97.11
39105;BME280;46464;51.154;13.812;2023-02-11T08:58:52;100582.25;;;3.42;96.92
39105;BME280;46464;51.154;13.812;2023-02-11T09:01:20;100588.44;;;3.46;96.58
39105;BME280;46464;51.154;13.812;2023-02-11T09:03:48;100591.13;;;3.50;96.65
39105;BME280;46464;51.154;13.812;2023-02-11T09:06:14;100599.97;;;3.54;96.23
39105;BME280;46464;51.154;13.812;2023-02-11T09:08:43;100593.78;;;3.57;95.86
39105;BME280;46464;51.154;13.812;2023-02-11T09:11:11;100588.47;;;3.60;95.83
39105;BME280;46464;51.154;13.812;2023-02-11T09:13:39;100581.38;;;3.62;95.60
39105;BME280;46464;51.154;13.812;2023-02-11T09:16:06;100589.38;;;3.60;95.19
39105;BME280;46464;51.154;13.812;2023-02-11T09:18:33;100600.88;;;3.61;94.63
39105;BME280;46464;51.154;13.812;2023-02-11T09:21:03;100589.38;;;3.65;95.01
39105;BME280;46464;51.154;13.812;2023-02-11T09:23:30;100599.13;;;3.67;94.82
39105;BME280;46464;51.154;13.812;2023-02-11T09:25:57;100599.13;;;3.67;95.12
39105;BME280;46464;51.154;13.812;2023-02-11T09:28:23;100610.63;;;3.69;94.82
39105;BME280;46464;51.154;13.812;2023-02-11T09:30:49;100611.53;;;3.68;95.07
39105;BME280;46464;51.154;13.812;2023-02-11T09:33:16;100615.03;;;3.70;95.21
39105;BME280;46464;51.154;13.812;2023-02-11T09:35:43;100615.94;;;3.71;95.24
39105;BME280;46464;51.154;13.812;2023-02-11T09:38:09;100613.28;;;3.69;95.53
39105;BME280;46464;51.154;13.812;2023-02-11T09:40:36;100619.47;;;3.71;95.50
39105;BME280;46464;51.154;13.812;2023-02-11T09:43:03;100603.53;;;3.70;95.60
39105;BME280;46464;51.154;13.812;2023-02-11T09:45:31;100617.69;;;3.70;95.64
39105;BME280;46464;51.154;13.812;2023-02-11T09:48:04;100602.66;;;3.72;95.51
39105;BME280;46464;51.154;13.812;2023-02-11T09:50:39;100606.22;;;3.68;95.74
39105;BME280;46464;51.154;13.812;2023-02-11T09:55:44;100608.88;;;3.75;95.22
39105;BME280;46464;51.154;13.812;2023-02-11T09:58:15;100602.66;;;3.71;95.61
39105;BME280;46464;51.154;13.812;2023-02-11T10:00:43;100598.22;;;3.73;95.80
39105;BME280;46464;51.154;13.812;2023-02-11T10:08:33;100594.69;;;3.79;96.07
39105;BME280;46464;51.154;13.812;2023-02-11T10:13:35;100588.50;;;3.80;95.72
39105;BME280;46464;51.154;13.812;2023-02-11T10:23:32;100580.50;;;3.91;95.45
39105;BME280;46464;51.154;13.812;2023-02-11T10:26:00;100586.72;;;3.96;94.91
39105;BME280;46464;51.154;13.812;2023-02-11T10:28:28;100579.59;;;4.06;94.34
39105;BME280;46464;51.154;13.812;2023-02-11T10:30:59;100581.38;;;4.08;94.28
39105;BME280;46464;51.154;13.812;2023-02-11T10:33:32;100599.09;;;4.14;94.95
39105;BME280;46464;51.154;13.812;2023-02-11T10:36:02;100599.97;;;4.25;93.71
39105;BME280;46464;51.154;13.812;2023-02-11T10:38:29;100586.66;;;4.28;93.05
39105;BME280;46464;51.154;13.812;2023-02-11T10:40:55;100581.34;;;4.33;93.48
39105;BME280;46464;51.154;13.812;2023-02-11T10:43:24;100591.06;;;4.34;93.25
39105;BME280;46464;51.154;13.812;2023-02-11T10:45:51;100586.66;;;4.33;93.39
39105;BME280;46464;51.154;13.812;2023-02-11T10:54:05;100562.69;;;4.31;93.48
39105;BME280;46464;51.154;13.812;2023-02-11T10:56:48;100560.03;;;4.36;93.53
39105;BME280;46464;51.154;13.812;2023-02-11T11:01:51;100581.34;;;4.34;93.98
39105;BME280;46464;51.154;13.812;2023-02-11T11:07:10;100564.47;;;4.43;93.72
39105;BME280;46464;51.154;13.812;2023-02-11T11:09:57;100563.56;;;4.47;93.48
39105;BME280;46464;51.154;13.812;2023-02-11T11:12:26;100569.78;;;4.42;93.95
39105;BME280;46464;51.154;13.812;2023-02-11T11:14:56;100579.53;;;4.41;94.31
39105;BME280;46464;51.154;13.812;2023-02-11T11:17:23;100583.97;;;4.42;94.08
39105;BME280;46464;51.154;13.812;2023-02-11T11:20:13;100574.19;;;4.43;94.23
39105;BME280;46464;51.154;13.812;2023-02-11T11:22:40;100568.88;;;4.41;94.36
39105;BME280;46464;51.154;13.812;2023-02-11T11:25:20;100566.22;;;4.43;94.33
39105;BME280;46464;51.154;13.812;2023-02-11T11:27:48;100575.97;;;4.44;94.24
39105;BME280;46464;51.154;13.812;2023-02-11T11:30:15;100580.41;;;4.45;94.38
39105;BME280;46464;51.154;13.812;2023-02-11T11:32:42;100560.91;;;4.41;94.57
39105;BME280;46464;51.154;13.812;2023-02-11T11:35:20;100564.44;;;4.45;94.77
39105;BME280;46464;51.154;13.812;2023-02-11T11:37:51;100573.31;;;4.48;94.92
39105;BME280;46464;51.154;13.812;2023-02-11T11:42:44;100560.00;;;4.47;95.02
39105;BME280;46464;51.154;13.812;2023-02-11T11:50:36;100579.47;;;4.55;95.36
39105;BME280;46464;51.154;13.812;2023-02-11T11:55:47;100583.03;;;4.57;95.78
39105;BME280;46464;51.154;13.812;2023-02-11T11:58:18;100582.16;;;4.57;95.92
39105;BME280;46464;51.154;13.812;2023-02-11T12:01:04;100573.28;;;4.56;96.13
39105;BME280;46464;51.154;13.812;2023-02-11T12:09:00;100570.63;;;4.58;96.71
39105;BME280;46464;51.154;13.812;2023-02-11T12:14:24;100567.06;;;4.57;96.94
39105;BME280;46464;51.154;13.812;2023-02-11T12:16:56;100572.41;;;4.54;97.13
39105;BME280;46464;51.154;13.812;2023-02-11T12:29:41;100579.50;;;4.57;97.42
39105;BME280;46464;51.154;13.812;2023-02-11T12:37:26;100580.34;;;4.59;97.64
39105;BME280;46464;51.154;13.812;2023-02-11T12:40:08;100594.53;;;4.67;97.89
39105;BME280;46464;51.154;13.812;2023-02-11T12:45:39;100584.75;;;4.67;98.08
39105;BME280;46464;51.154;13.812;2023-02-11T12:51:01;100568.78;;;4.71;98.85
39105;BME280;46464;51.154;13.812;2023-02-11T12:56:17;100577.66;;;4.71;99.74
39105;BME280;46464;51.154;13.812;2023-02-11T12:58:46;100573.25;;;4.67;100.00
39105;BME280;46464;51.154;13.812;2023-02-11T13:01:17;100570.59;;;4.65;100.00
39105;BME280;46464;51.154;13.812;2023-02-11T13:03:47;100559.94;;;4.67;100.00
39105;BME280;46464;51.154;13.812;2023-02-11T13:06:16;100561.72;;;4.68;100.00
39105;BME280;46464;51.154;13.812;2023-02-11T13:09:04;100549.31;;;4.62;100.00
39105;BME280;46464;51.154;13.812;2023-02-11T13:11:35;100551.97;;;4.65;100.00
39105;BME280;46464;51.154;13.812;2023-02-11T13:14:11;100548.41;;;4.68;100.00
39105;BME280;46464;51.154;13.812;2023-02-11T13:16:44;100544.88;;;4.64;100.00
39105;BME280;46464;51.154;13.812;2023-02-11T13:21:45;100549.28;;;4.67;100.00
39105;BME280;46464;51.154;13.812;2023-02-11T13:26:50;100536.88;;;4.64;100.00
39105;BME280;46464;51.154;13.812;2023-02-11T13:29:41;100531.53;;;4.67;100.00
39105;BME280;46464;51.154;13.812;2023-02-11T13:32:14;100532.41;;;4.69;100.00
39105;BME280;46464;51.154;13.812;2023-02-11T13:39:42;100536.84;;;4.71;100.00
39105;BME280;46464;51.154;13.812;2023-02-11T13:42:20;100531.53;;;4.71;100.00
39105;BME280;46464;51.154;13.812;2023-02-11T13:44:47;100527.97;;;4.72;100.00
39105;BME280;46464;51.154;13.812;2023-02-11T13:47:26;100535.09;;;4.73;100.00
39105;BME280;46464;51.154;13.812;2023-02-11T13:49:55;100540.41;;;4.73;100.00
39105;BME280;46464;51.154;13.812;2023-02-11T13:52:33;100535.94;;;4.76;100.00
39105;BME280;46464;51.154;13.812;2023-02-11T13:55:08;100538.63;;;4.73;100.00
39105;BME280;46464;51.154;13.812;2023-02-11T13:57:40;100535.94;;;4.76;100.00
39105;BME280;46464;51.154;13.812;2023-02-11T14:22:00;100556.28;;;4.90;100.00
39105;BME280;46464;51.154;13.812;2023-02-11T14:26:58;100556.25;;;4.94;100.00
39105;BME280;46464;51.154;13.812;2023-02-11T14:34:50;100563.34;;;4.97;99.98
39105;BME280;46464;51.154;13.812;2023-02-11T14:37:24;100559.78;;;5.03;100.00
39105;BME280;46464;51.154;13.812;2023-02-11T14:40:09;100557.13;;;5.03;100.00
39105;BME280;46464;51.154;13.812;2023-02-11T14:42:40;100556.22;;;5.05;100.00
39105;BME280;46464;51.154;13.812;2023-02-11T14:45:08;100549.97;;;5.05;100.00
39105;BME280;46464;51.154;13.812;2023-02-11T14:50:05;100554.41;;;5.06;100.00
39105;BME280;46464;51.154;13.812;2023-02-11T14:52:35;100534.94;;;5.04;100.00
39105;BME280;46464;51.154;13.812;2023-02-11T14:57:32;100550.91;;;5.04;100.00
39105;BME280;46464;51.154;13.812;2023-02-11T15:00:00;100549.97;;;5.08;100.00
39105;BME280;46464;51.154;13.812;2023-02-11T15:02:29;100552.63;;;5.09;100.00
39105;BME280;46464;51.154;13.812;2023-02-11T15:08:00;100550.84;;;5.16;100.00
39105;BME280;46464;51.154;13.812;2023-02-11T15:10:32;100546.41;;;5.12;100.00
39105;BME280;46464;51.154;13.812;2023-02-11T15:13:00;100549.09;;;5.06;100.00
39105;BME280;46464;51.154;13.812;2023-02-11T15:15:27;100550.88;;;5.07;100.00
39105;BME280;46464;51.154;13.812;2023-02-11T15:17:55;100553.53;;;5.08;100.00
39105;BME280;46464;51.154;13.812;2023-02-11T15:20:25;100552.63;;;5.09;100.00
39105;BME280;46464;51.154;13.812;2023-02-11T15:22:54;100554.41;;;5.10;100.00
39105;BME280;46464;51.154;13.812;2023-02-11T15:25:21;100565.97;;;5.05;100.00
39105;BME280;46464;51.154;13.812;2023-02-11T15:27:50;100565.97;;;5.06;100.00
39105;BME280;46464;51.154;13.812;2023-02-11T15:32:50;100571.31;;;5.06;100.00